Time;durP1;ratioP1;P1;durP2;ratioP2;P2;SDS_P1;SDS_P2;PMS_P1;PMS_P2;Temp;Humidity;BMP_temperature;BMP_pressure;BME280_temperature;BME280_humidity;BME280_pressure;Samples;Min_cycle;Max_cycle;Signal;HPM_P1;HPM_P2
2023/03/08 03:37:30;;;;;;;10.45;6.32;;;2.80;1.00;;;;;;4981764;28;20551;-85
2023/03/08 03:50:45;;;;;;;11.32;6.85;;;2.60;1.00;;;;;;5026820;28;20214;-86
2023/03/08 04:04:16;;;;;;;;;;;;;;;;;;;;;
2023/03/08 04:07:31;;;;;;;;;;;;;;;;;;;;;
2023/03/08 04:14:51;;;;;;;;;;;;;;;;;;;;;
2023/03/08 04:21:11;;;;;;;;;;;;;;;;;;;;;
2023/03/08 04:35:10;;;;;;;;;;;;;;;;;;;;;
2023/03/08 04:51:53;;;;;;;15.50;7.93;;;2.20;1.00;;;;;;5029884;28;20206;-87
2023/03/08 05:05:21;;;;;;;;;;;;;;;;;;;;;
2023/03/08 05:08:05;;;;;;;;;;;;;;;;;;;;;
2023/03/08 05:14:30;;;;;;;;;;;;;;;;;;;;;
2023/03/08 05:17:40;;;;;;;14.13;7.28;;;2.00;1.00;;;;;;5028100;28;20285;-86
2023/03/08 05:20:18;;;;;;;;;;;;;;;;;;;;;
2023/03/08 05:43:04;;;;;;;42.42;12.93;;;1.80;1.00;;;;;;5023928;28;20279;-85
2023/03/08 05:46:09;;;;;;;;;;;;;;;;;;;;;
2023/03/08 05:53:10;;;;;;;30.02;9.93;;;1.80;1.00;;;;;;5021440;28;20341;-86
2023/03/08 05:56:09;;;;;;;;;;;;;;;;;;;;;
2023/03/08 05:59:25;;;;;;;;;;;;;;;;;;;;;
2023/03/08 06:09:27;;;;;;;38.38;13.32;;;1.70;1.00;;;;;;5021847;28;20182;-85
2023/03/08 06:12:44;;;;;;;46.63;14.45;;;1.60;1.00;;;;;;5028476;28;20211;-86
2023/03/08 06:15:33;;;;;;;;;;;;;;;;;;;;;
2023/03/08 06:28:39;;;;;;;;;;;;;;;;;;;;;
2023/03/08 06:31:49;;;;;;;;;;;;;;;;;;;;;
2023/03/08 06:38:28;;;;;;;76.32;24.75;;;1.60;1.00;;;;;;5021407;28;20233;-86
2023/03/08 06:42:27;;;;;;;76.25;22.45;;;1.60;1.00;;;;;;5024767;28;20277;-86
2023/03/08 06:48:43;;;;;;;;;;;;;;;;;;;;;
2023/03/08 07:04:58;;;;;;;76.57;26.33;;;1.80;1.00;;;;;;5048714;28;20206;-83
2023/03/08 07:07:26;;;;;;;72.90;25.73;;;1.80;1.00;;;;;;5038463;28;20561;-84
2023/03/08 07:10:05;;;;;;;;;;;;;;;;;;;;;
2023/03/08 07:12:55;;;;;;;;;;;;;;;;;;;;;
2023/03/08 07:15:51;;;;;;;68.20;27.17;;;1.90;1.00;;;;;;5053420;28;20257;-83
2023/03/08 07:18:31;;;;;;;60.97;23.77;;;2.00;1.00;;;;;;5045905;28;20212;-83
2023/03/08 07:21:05;;;;;;;64.80;24.48;;;2.10;1.00;;;;;;5040719;28;20220;-83
2023/03/08 07:23:51;;;;;;;;;;;;;;;;;;;;;
2023/03/08 07:26:20;;;;;;;72.18;24.85;;;2.20;1.00;;;;;;5067575;28;20209;-83
2023/03/08 07:28:57;;;;;;;85.72;31.55;;;2.20;1.00;;;;;;5067344;28;20191;-84
2023/03/08 07:31:54;;;;;;;68.25;28.23;;;2.30;1.00;;;;;;5051257;28;20224;-82
2023/03/08 07:37:39;;;;;;;53.65;19.40;;;2.30;1.00;;;;;;5049518;28;20189;-83
2023/03/08 07:44:02;;;;;;;56.17;20.40;;;2.30;1.00;;;;;;5018050;28;20284;-83
2023/03/08 07:46:36;;;;;;;58.63;22.92;;;2.30;1.00;;;;;;5024298;28;20182;-82
2023/03/08 07:52:20;;;;;;;;;;;;;;;;;;;;;
2023/03/08 07:55:20;;;;;;;73.93;21.30;;;2.50;1.00;;;;;;5062458;28;20260;-82
2023/03/08 08:01:52;;;;;;;63.15;22.30;;;2.60;1.00;;;;;;4965903;28;20223;-83
2023/03/08 08:04:47;;;;;;;77.72;26.90;;;2.70;1.00;;;;;;5040312;28;20261;-84
2023/03/08 08:07:29;;;;;;;77.68;29.70;;;2.60;1.00;;;;;;5039712;28;20879;-84
2023/03/08 08:13:52;;;;;;;;;;;;;;;;;;;;;
2023/03/08 08:19:38;;;;;;;;;;;;;;;;;;;;;
2023/03/08 08:25:39;;;;;;;;;;;;;;;;;;;;;
2023/03/08 08:29:09;;;;;;;;;;;;;;;;;;;;;
2023/03/08 08:38:12;;;;;;;54.67;18.83;;;3.50;1.00;;;;;;5044631;28;20220;-82
2023/03/08 08:44:52;;;;;;;57.45;18.92;;;3.60;99.90;;;;;;5036204;28;20186;-83
2023/03/08 08:47:26;;;;;;;62.42;19.63;;;3.70;99.90;;;;;;5021086;28;20197;-83
2023/03/08 08:50:25;;;;;;;58.50;22.88;;;3.80;99.90;;;;;;5032011;28;22441;-83
2023/03/08 08:53:01;;;;;;;50.10;18.00;;;3.90;99.90;;;;;;5042631;28;20193;-83
2023/03/08 08:55:46;;;;;;;58.70;19.88;;;3.90;99.90;;;;;;5054472;28;20208;-83
2023/03/08 08:58:24;;;;;;;;;;;;;;;;;;;;;
2023/03/08 09:01:42;;;;;;;60.85;23.02;;;4.00;99.90;;;;;;5055265;28;20313;-82
2023/03/08 09:04:19;;;;;;;51.53;19.20;;;4.00;99.90;;;;;;5029731;28;20205;-82
2023/03/08 09:06:53;;;;;;;62.15;20.60;;;4.00;99.90;;;;;;5050513;28;20268;-83
2023/03/08 09:10:01;;;;;;;56.28;19.05;;;4.10;99.90;;;;;;5027245;28;20194;-83
2023/03/08 09:12:29;;;;;;;62.33;20.05;;;4.20;74.10;;;;;;5055109;28;20186;-83
2023/03/08 09:16:00;;;;;;;54.03;20.70;;;4.20;1.00;;;;;;5043231;28;20190;-83
2023/03/08 09:18:31;;;;;;;;;;;;;;;;;;;;;
2023/03/08 09:24:56;;;;;;;53.78;21.58;;;4.60;1.00;;;;;;5044231;28;20467;-83
2023/03/08 09:28:12;;;;;;;;;;;;;;;;;;;;;
2023/03/08 09:34:07;;;;;;;;;;;;;;;;;;;;;
2023/03/08 09:36:42;;;;;;;53.85;21.50;;;5.10;99.90;;;;;;5055210;28;20261;-84
2023/03/08 09:42:33;;;;;;;;;;;;;;;;;;;;;
2023/03/08 09:45:27;;;;;;;61.97;22.52;;;5.00;1.00;;;;;;5050032;28;20261;-83
2023/03/08 09:48:06;;;;;;;53.33;20.15;;;5.00;1.00;;;;;;5050393;28;20662;-83
2023/03/08 09:50:36;;;;;;;63.05;23.98;;;4.90;1.00;;;;;;5024918;28;20212;-83
2023/03/08 09:53:24;;;;;;;54.80;22.75;;;4.90;99.90;;;;;;5031812;28;20209;-84
2023/03/08 09:56:03;;;;;;;60.55;22.70;;;4.90;1.00;;;;;;5035871;28;20208;-84
2023/03/08 09:58:51;;;;;;;62.33;24.92;;;4.90;1.00;;;;;;5052290;28;20179;-84
2023/03/08 10:01:26;;;;;;;64.25;26.70;;;5.00;79.30;;;;;;5025617;28;20221;-83
2023/03/08 10:04:21;;;;;;;65.95;23.73;;;5.10;99.90;;;;;;5032113;28;20200;-81
2023/03/08 10:07:18;;;;;;;55.53;21.80;;;5.20;99.90;;;;;;5024064;28;20182;-83
2023/03/08 10:10:17;;;;;;;68.32;22.90;;;5.30;1.00;;;;;;5044624;28;20236;-83
2023/03/08 10:13:08;;;;;;;60.95;23.90;;;5.30;99.90;;;;;;5012794;28;20197;-83
2023/03/08 10:15:49;;;;;;;68.72;24.35;;;5.30;1.00;;;;;;5043042;28;20197;-83
2023/03/08 10:18:28;;;;;;;53.90;22.55;;;5.40;99.90;;;;;;5045907;28;20224;-84
2023/03/08 10:20:57;;;;;;;57.60;23.23;;;5.60;99.90;;;;;;5059118;28;20331;-83
2023/03/08 10:23:25;;;;;;;54.33;23.35;;;5.80;99.90;;;;;;5061729;28;20177;-84
2023/03/08 10:25:53;;;;;;;52.17;23.92;;;6.00;99.90;;;;;;5055060;28;20228;-84
2023/03/08 10:28:23;;;;;;;47.53;21.08;;;6.30;1.00;;;;;;5043374;28;20199;-84
2023/03/08 10:30:58;;;;;;;50.17;22.92;;;6.40;13.30;;;;;;5048088;28;20292;-84
2023/03/08 10:33:30;;;;;;;48.17;22.55;;;6.60;1.00;;;;;;5039961;28;20189;-84
2023/03/08 10:36:21;;;;;;;47.45;21.83;;;6.90;1.00;;;;;;5041835;28;20185;-84
2023/03/08 10:39:07;;;;;;;55.58;23.02;;;7.00;1.00;;;;;;5037588;28;20268;-83
2023/03/08 10:41:46;;;;;;;48.28;22.40;;;7.10;99.90;;;;;;5033206;28;20194;-84
2023/03/08 10:44:32;;;;;;;49.43;21.43;;;7.20;1.00;;;;;;5038288;28;20251;-84
2023/03/08 10:47:05;;;;;;;48.60;23.80;;;7.50;99.90;;;;;;5042471;28;20428;-84
2023/03/08 10:49:32;;;;;;;50.87;24.70;;;7.70;1.00;;;;;;5022496;28;20820;-83
2023/03/08 10:52:00;;;;;;;54.13;27.30;;;7.60;99.90;;;;;;5046162;28;21030;-84
2023/03/08 10:54:35;;;;;;;49.55;28.25;;;7.50;99.90;;;;;;5040288;28;20445;-83
2023/03/08 10:57:04;;;;;;;45.80;23.67;;;7.70;98.00;;;;;;5045805;28;20189;-83
2023/03/08 10:59:37;;;;;;;46.07;21.60;;;8.10;99.90;;;;;;5024510;28;20453;-83
2023/03/08 11:02:14;;;;;;;45.43;22.30;;;8.40;99.90;;;;;;5020941;28;20969;-84
2023/03/08 11:05:01;;;;;;;39.17;19.97;;;9.00;1.00;;;;;;5019569;28;20533;-83
2023/03/08 11:07:30;;;;;;;35.60;21.60;;;9.00;1.00;;;;;;5033377;28;20794;-84
2023/03/08 11:10:17;;;;;;;31.70;21.37;;;8.90;1.00;;;;;;5028777;28;20804;-84
2023/03/08 11:12:43;;;;;;;38.07;19.10;;;8.60;1.00;;;;;;5040061;28;20412;-83
2023/03/08 11:15:16;;;;;;;36.03;20.43;;;8.30;1.00;;;;;;5037650;28;20940;-82
2023/03/08 11:17:56;;;;;;;38.33;21.90;;;8.00;1.00;;;;;;5037114;28;20435;-85
2023/03/08 11:20:29;;;;;;;34.17;19.57;;;7.80;62.60;;;;;;5021270;28;20993;-83
2023/03/08 11:23:15;;;;;;;38.30;21.20;;;7.80;99.90;;;;;;5030171;28;20433;-83
2023/03/08 11:25:47;;;;;;;34.08;20.88;;;7.90;99.90;;;;;;5040692;28;20905;-83
2023/03/08 11:28:39;;;;;;;35.38;22.33;;;7.80;99.90;;;;;;5028956;28;20186;-83
2023/03/08 11:31:18;;;;;;;31.27;20.42;;;7.60;99.90;;;;;;5033931;28;20614;-83
2023/03/08 11:34:13;;;;;;;29.20;18.90;;;7.70;99.90;;;;;;5037380;28;20554;-83
2023/03/08 11:37:01;;;;;;;26.75;18.55;;;7.80;99.90;;;;;;5043899;28;20178;-80
2023/03/08 11:39:38;;;;;;;27.27;18.98;;;7.80;99.90;;;;;;5021250;28;20198;-83
2023/03/08 11:42:34;;;;;;;27.13;17.15;;;7.70;99.90;;;;;;5018545;28;20181;-80
2023/03/08 11:45:28;;;;;;;23.08;16.33;;;7.60;99.90;;;;;;5029473;28;20268;-83
2023/03/08 11:48:11;;;;;;;25.48;17.63;;;7.80;1.00;;;;;;5042765;28;20170;-83
2023/03/08 11:50:52;;;;;;;30.43;18.90;;;7.90;99.90;;;;;;5030210;28;20621;-83
2023/03/08 11:53:22;;;;;;;23.60;17.13;;;8.00;99.90;;;;;;5044840;28;20451;-81
2023/03/08 11:55:57;;;;;;;18.95;15.20;;;7.90;99.90;;;;;;5032028;28;20448;-81
2023/03/08 11:58:32;;;;;;;22.80;17.23;;;7.80;99.90;;;;;;5049280;28;20674;-83
2023/03/08 12:01:08;;;;;;;22.83;16.70;;;7.70;99.90;;;;;;5022980;28;20222;-84
2023/03/08 12:03:40;;;;;;;22.57;16.27;;;7.70;99.90;;;;;;5045738;28;20335;-83
2023/03/08 12:06:25;;;;;;;19.40;14.80;;;7.90;99.90;;;;;;5025785;28;20483;-84
2023/03/08 12:09:06;;;;;;;23.80;14.90;;;8.20;99.90;;;;;;5030668;28;20737;-84
2023/03/08 12:11:44;;;;;;;23.83;15.67;;;8.40;99.90;;;;;;5032271;28;20448;-84
2023/03/08 12:14:29;;;;;;;21.03;15.60;;;8.60;31.60;;;;;;5020710;28;20447;-84
2023/03/08 12:17:04;;;;;;;21.73;15.10;;;8.80;1.00;;;;;;5043119;28;20440;-85
2023/03/08 12:19:48;;;;;;;22.60;16.70;;;9.10;1.00;;;;;;5026475;28;20463;-84
2023/03/08 12:22:32;;;;;;;21.57;15.37;;;9.20;1.00;;;;;;5038105;28;20443;-84
2023/03/08 12:25:30;;;;;;;20.17;17.00;;;9.00;1.00;;;;;;5037482;28;20432;-85
2023/03/08 12:28:24;;;;;;;18.90;15.50;;;8.80;1.00;;;;;;5039686;28;20436;-85
2023/03/08 12:31:11;;;;;;;19.97;15.10;;;8.70;1.00;;;;;;5035064;28;20667;-84
2023/03/08 12:33:37;;;;;;;19.60;15.10;;;8.70;1.00;;;;;;5020999;28;20903;-85
2023/03/08 12:36:11;;;;;;;17.37;13.97;;;8.70;1.00;;;;;;5040940;28;20500;-85
2023/03/08 12:38:44;;;;;;;19.57;14.80;;;8.60;1.00;;;;;;5030231;28;20186;-84
2023/03/08 12:41:55;;;;;;;20.90;15.20;;;8.50;1.00;;;;;;5046823;28;20447;-84
2023/03/08 12:44:27;;;;;;;17.07;13.03;;;8.70;1.00;;;;;;4983408;28;20474;-84
2023/03/08 12:47:19;;;;;;;19.80;15.30;;;8.70;1.00;;;;;;5034669;28;20440;-85
2023/03/08 12:49:51;;;;;;;20.97;15.07;;;8.60;1.00;;;;;;5041001;28;20524;-84
2023/03/08 12:52:17;;;;;;;20.30;14.83;;;8.50;1.00;;;;;;5039177;28;20455;-84
2023/03/08 12:54:44;;;;;;;20.63;16.57;;;8.40;1.00;;;;;;5029797;28;20479;-85
2023/03/08 12:57:24;;;;;;;22.27;17.40;;;8.50;1.00;;;;;;5043253;28;20204;-84
2023/03/08 12:59:57;;;;;;;24.90;16.73;;;8.40;1.00;;;;;;5027791;28;20468;-85
2023/03/08 13:02:38;;;;;;;19.70;15.53;;;8.30;1.00;;;;;;5020671;28;20444;-83
2023/03/08 13:05:28;;;;;;;20.38;16.30;;;8.00;33.90;;;;;;5043242;28;20455;-83
2023/03/08 13:08:12;;;;;;;19.05;15.52;;;7.80;99.90;;;;;;5047837;28;20186;-83
2023/03/08 13:10:54;;;;;;;20.67;16.65;;;7.70;99.90;;;;;;5039469;28;20667;-83
2023/03/08 13:13:30;;;;;;;24.40;16.98;;;7.60;99.90;;;;;;5045886;28;20209;-82
2023/03/08 13:16:14;;;;;;;24.38;18.55;;;7.60;99.90;;;;;;5026986;28;20963;-83
2023/03/08 13:18:42;;;;;;;21.93;15.70;;;7.50;99.90;;;;;;5032252;28;20212;-82
2023/03/08 13:21:24;;;;;;;23.52;18.13;;;7.50;99.90;;;;;;5038456;28;20468;-82
2023/03/08 13:24:13;;;;;;;22.45;18.52;;;7.50;1.00;;;;;;5044830;28;20588;-83
2023/03/08 13:26:58;;;;;;;21.73;17.30;;;7.50;1.00;;;;;;5021979;28;20377;-83
2023/03/08 13:29:30;;;;;;;26.10;17.63;;;7.60;1.00;;;;;;5026949;28;20444;-81
2023/03/08 13:32:24;;;;;;;25.42;18.95;;;7.70;1.00;;;;;;5041497;28;20205;-82
2023/03/08 13:35:22;;;;;;;;;;;;;;;;;;;;;
2023/03/08 13:37:57;;;;;;;23.00;17.23;;;7.90;1.00;;;;;;5041806;28;20190;-82
2023/03/08 13:40:23;;;;;;;21.10;16.42;;;7.90;1.00;;;;;;5034620;28;20210;-82
2023/03/08 13:43:01;;;;;;;25.37;19.77;;;7.80;1.00;;;;;;5040506;28;20209;-82
2023/03/08 13:45:28;;;;;;;29.05;20.00;;;7.70;1.00;;;;;;5048367;28;20434;-83
2023/03/08 13:47:57;;;;;;;27.38;18.48;;;7.60;1.00;;;;;;5040975;28;20284;-82
2023/03/08 13:50:41;;;;;;;25.50;19.02;;;7.50;1.00;;;;;;5045098;28;20244;-82
2023/03/08 13:53:09;;;;;;;28.00;18.27;;;7.50;1.00;;;;;;5053568;28;20257;-82
2023/03/08 13:55:41;;;;;;;27.55;19.67;;;7.40;1.00;;;;;;5050183;28;20178;-82
2023/03/08 13:58:32;;;;;;;26.85;20.67;;;7.30;1.00;;;;;;5041584;28;20222;-82
2023/03/08 14:01:11;;;;;;;25.40;19.67;;;7.10;1.00;;;;;;5045027;28;20759;-83
2023/03/08 14:03:38;;;;;;;23.95;18.85;;;7.10;99.90;;;;;;5044726;28;20613;-83
2023/03/08 14:06:22;;;;;;;24.40;17.80;;;7.10;99.90;;;;;;5043011;28;20667;-83
2023/03/08 14:08:52;;;;;;;22.88;18.02;;;7.10;99.90;;;;;;5026146;28;20718;-81
2023/03/08 14:11:22;;;;;;;25.60;18.95;;;7.10;99.90;;;;;;5037924;28;20600;-83
2023/03/08 14:13:54;;;;;;;23.80;17.63;;;7.20;99.90;;;;;;5037532;28;20233;-82
2023/03/08 14:16:40;;;;;;;24.15;18.42;;;7.20;99.90;;;;;;5024941;28;20289;-82
2023/03/08 14:19:13;;;;;;;22.45;17.25;;;7.10;99.90;;;;;;5040615;28;20198;-83
2023/03/08 14:21:58;;;;;;;25.63;16.73;;;7.10;99.90;;;;;;5040308;28;20213;-83
2023/03/08 14:24:34;;;;;;;26.05;17.75;;;6.90;1.00;;;;;;5046025;28;20182;-84
2023/03/08 14:27:08;;;;;;;24.20;17.08;;;6.80;1.00;;;;;;5026126;28;20185;-84
2023/03/08 14:29:37;;;;;;;23.63;16.52;;;6.80;1.00;;;;;;5041809;28;20185;-84
2023/03/08 14:32:11;;;;;;;19.52;15.20;;;6.60;1.00;;;;;;5043663;28;20217;-84
2023/03/08 14:34:38;;;;;;;20.45;15.60;;;6.60;99.90;;;;;;5034295;28;20186;-81
2023/03/08 14:37:27;;;;;;;19.27;14.60;;;6.50;99.90;;;;;;5028187;28;20186;-81
2023/03/08 14:40:14;;;;;;;21.02;14.90;;;6.40;1.00;;;;;;5043063;28;20233;-83
2023/03/08 14:42:45;;;;;;;22.55;14.73;;;6.40;1.00;;;;;;5051254;28;20182;-83
2023/03/08 14:45:30;;;;;;;19.98;14.73;;;6.40;1.00;;;;;;5030357;28;20181;-84
2023/03/08 14:47:58;;;;;;;19.23;14.55;;;6.30;1.00;;;;;;5042039;28;20746;-83
2023/03/08 14:50:32;;;;;;;26.20;16.30;;;6.20;41.70;;;;;;5033568;28;20710;-83
2023/03/08 14:53:06;;;;;;;25.05;15.65;;;6.20;99.90;;;;;;5045565;28;20181;-83
2023/03/08 14:55:37;;;;;;;24.25;17.50;;;6.20;99.90;;;;;;5037834;28;20261;-82
2023/03/08 14:58:11;;;;;;;28.50;17.15;;;6.10;99.90;;;;;;5028061;28;20181;-84
2023/03/08 15:01:00;;;;;;;23.08;17.20;;;6.10;1.00;;;;;;5036103;28;20213;-84
2023/03/08 15:03:26;;;;;;;24.13;16.90;;;6.10;1.00;;;;;;5025368;28;20186;-81
2023/03/08 15:05:58;;;;;;;26.00;18.63;;;6.00;1.00;;;;;;5037067;28;20186;-81
2023/03/08 15:08:24;;;;;;;22.73;16.33;;;6.00;93.40;;;;;;5047560;28;20759;-80
2023/03/08 15:10:51;;;;;;;29.73;19.73;;;6.00;67.60;;;;;;5040735;28;20220;-83
2023/03/08 15:13:21;;;;;;;31.48;19.73;;;5.90;1.00;;;;;;5039568;28;20445;-84
2023/03/08 15:15:47;;;;;;;26.05;17.17;;;6.00;99.90;;;;;;5030387;28;20186;-83
2023/03/08 15:18:15;;;;;;;27.27;19.10;;;6.00;1.00;;;;;;5038510;28;20179;-81
2023/03/08 15:20:48;;;;;;;22.77;16.92;;;6.00;1.00;;;;;;5042950;28;20210;-82
2023/03/08 15:23:28;;;;;;;27.25;18.20;;;6.00;1.00;;;;;;5033330;28;20190;-81
2023/03/08 15:25:54;;;;;;;24.50;16.35;;;6.00;1.00;;;;;;5041260;28;20221;-82
2023/03/08 15:28:21;;;;;;;26.50;17.73;;;6.00;1.00;;;;;;5024139;28;20206;-81
2023/03/08 15:30:53;;;;;;;21.58;17.40;;;6.00;1.00;;;;;;5045772;28;20452;-81
2023/03/08 15:33:19;;;;;;;23.63;16.08;;;6.00;1.00;;;;;;5040839;28;20186;-82
2023/03/08 15:35:45;;;;;;;20.75;15.25;;;6.00;1.00;;;;;;5041178;28;21622;-82
2023/03/08 15:38:13;;;;;;;19.15;15.40;;;6.00;1.00;;;;;;5018786;28;20643;-81
2023/03/08 15:40:41;;;;;;;24.05;17.30;;;6.00;1.00;;;;;;5039166;28;20220;-82
2023/03/08 15:43:07;;;;;;;28.27;17.15;;;5.90;1.00;;;;;;5027064;28;20261;-82
2023/03/08 15:45:33;;;;;;;22.87;15.77;;;5.80;1.00;;;;;;5033819;28;20743;-84
2023/03/08 15:48:07;;;;;;;19.03;14.83;;;5.80;99.90;;;;;;5043558;28;20443;-86
2023/03/08 15:50:33;;;;;;;20.95;15.35;;;5.80;99.90;;;;;;5045094;28;20571;-83
2023/03/08 15:52:59;;;;;;;24.00;17.50;;;5.70;99.90;;;;;;5048744;28;20693;-83
2023/03/08 15:55:29;;;;;;;22.57;17.40;;;5.70;1.00;;;;;;5039901;28;20273;-84
2023/03/08 15:57:54;;;;;;;21.38;16.52;;;5.70;1.00;;;;;;5035737;28;20860;-83
2023/03/08 16:00:24;;;;;;;23.10;16.10;;;5.70;1.00;;;;;;5042985;28;20217;-83
2023/03/08 16:02:50;;;;;;;18.83;13.95;;;5.70;1.00;;;;;;5025931;28;20181;-83
2023/03/08 16:05:22;;;;;;;24.08;15.75;;;5.70;99.90;;;;;;5039181;28;20273;-83
2023/03/08 16:08:01;;;;;;;17.55;14.60;;;5.70;99.90;;;;;;5049394;28;20269;-84
2023/03/08 16:10:49;;;;;;;;;;;;;;;;;;;;;
2023/03/08 16:13:17;;;;;;;18.27;14.27;;;5.70;99.90;;;;;;5047784;28;20186;-84
2023/03/08 16:15:46;;;;;;;16.77;13.15;;;5.60;99.90;;;;;;5043289;28;20596;-82
2023/03/08 16:18:17;;;;;;;19.70;14.70;;;5.60;99.90;;;;;;5041012;28;20193;-82
2023/03/08 16:20:44;;;;;;;18.42;15.15;;;5.60;99.90;;;;;;5038727;28;20213;-83
2023/03/08 16:23:10;;;;;;;20.45;14.07;;;5.60;1.00;;;;;;5044178;28;20169;-83
2023/03/08 16:25:36;;;;;;;17.13;12.70;;;5.60;1.00;;;;;;5043647;28;20212;-82
2023/03/08 16:28:01;;;;;;;18.53;14.80;;;5.60;1.00;;;;;;5051390;28;20221;-83
2023/03/08 16:30:27;;;;;;;19.10;14.07;;;5.60;1.00;;;;;;5033689;28;21044;-83
2023/03/08 16:32:53;;;;;;;20.30;14.33;;;5.60;1.00;;;;;;5040098;28;20189;-81
2023/03/08 16:35:19;;;;;;;19.83;14.77;;;5.60;99.90;;;;;;5044263;28;20189;-83
2023/03/08 16:37:44;;;;;;;19.60;14.70;;;5.40;99.90;;;;;;5041302;28;20523;-84
2023/03/08 16:40:14;;;;;;;18.40;14.63;;;5.40;1.00;;;;;;5047255;28;20773;-83
2023/03/08 16:42:41;;;;;;;20.10;15.48;;;5.30;1.00;;;;;;5043705;28;20204;-84
2023/03/08 16:45:15;;;;;;;18.33;15.50;;;5.30;14.90;;;;;;5048241;28;20264;-83
2023/03/08 16:47:45;;;;;;;21.15;16.27;;;5.30;35.10;;;;;;5033688;28;20177;-84
2023/03/08 16:50:13;;;;;;;18.42;14.30;;;5.30;15.60;;;;;;5034636;28;20202;-83
2023/03/08 16:52:38;;;;;;;22.30;14.80;;;5.20;32.70;;;;;;5039085;28;20189;-83
2023/03/08 16:55:07;;;;;;;21.47;15.83;;;5.20;99.90;;;;;;5020634;28;20185;-84
2023/03/08 16:57:32;;;;;;;18.52;14.43;;;5.20;99.90;;;;;;5042640;28;20205;-84
2023/03/08 17:00:00;;;;;;;21.67;16.77;;;5.20;99.90;;;;;;5042954;28;20745;-84
2023/03/08 17:02:25;;;;;;;22.00;15.43;;;5.20;99.90;;;;;;5042964;28;20181;-84
2023/03/08 17:05:06;;;;;;;20.73;15.70;;;5.20;99.90;;;;;;5032261;28;20205;-84
2023/03/08 17:07:32;;;;;;;21.98;16.85;;;5.20;99.90;;;;;;5019283;28;20202;-83
2023/03/08 17:09:59;;;;;;;29.43;18.00;;;5.10;99.90;;;;;;5042785;28;20224;-84
2023/03/08 17:12:27;;;;;;;20.52;15.80;;;5.10;99.90;;;;;;5039958;28;20200;-83
2023/03/08 17:15:03;;;;;;;25.50;17.73;;;5.00;99.90;;;;;;5042771;28;20241;-83
2023/03/08 17:17:29;;;;;;;24.20;18.00;;;5.00;99.90;;;;;;5031073;28;20181;-83
2023/03/08 17:19:59;;;;;;;25.43;16.70;;;5.00;1.00;;;;;;5063478;28;20213;-83
2023/03/08 17:22:24;;;;;;;20.30;15.80;;;5.00;1.00;;;;;;5064506;28;20204;-83
2023/03/08 17:24:50;;;;;;;26.40;16.70;;;5.00;1.00;;;;;;5025929;28;20185;-83
2023/03/08 17:27:15;;;;;;;23.07;17.40;;;5.00;1.00;;;;;;5022262;28;20232;-83
2023/03/08 17:29:44;;;;;;;21.30;15.97;;;5.00;1.00;;;;;;5040479;28;20618;-82
2023/03/08 17:32:14;;;;;;;24.02;18.45;;;4.90;1.00;;;;;;5027014;28;20183;-83
2023/03/08 17:34:39;;;;;;;22.50;17.75;;;4.90;1.00;;;;;;5040645;28;20185;-83
2023/03/08 17:37:12;;;;;;;21.33;16.03;;;4.90;1.00;;;;;;5027539;28;20569;-83
2023/03/08 17:39:50;;;;;;;25.27;17.60;;;4.90;1.00;;;;;;5022234;28;20264;-82
2023/03/08 17:42:21;;;;;;;22.20;16.77;;;4.90;1.00;;;;;;5036290;28;20178;-82
2023/03/08 17:44:46;;;;;;;29.30;18.92;;;4.90;1.00;;;;;;5028438;28;20181;-82
2023/03/08 17:47:12;;;;;;;27.33;19.57;;;4.90;1.00;;;;;;5025063;28;20182;-82
2023/03/08 18:18:54;;;;;;;;;;;;;;;;;;;;;
2023/03/08 18:22:02;;;;;;;;;;;;;;;;;;;;;
2023/03/08 18:28:31;;;;;;;;;;;;;;;;;;;;;
2023/03/08 18:34:10;;;;;;;;;;;;;;;;;;;;;
2023/03/08 18:37:24;;;;;;;;;;;;;;;;;;;;;
2023/03/08 18:40:35;;;;;;;;;;;;;;;;;;;;;
2023/03/08 18:46:17;;;;;;;37.92;23.90;;;4.00;99.90;;;;;;5049078;28;20189;-86
2023/03/08 18:56:13;;;;;;;37.33;25.98;;;3.90;99.90;;;;;;5050941;28;20213;-84
2023/03/08 18:59:52;;;;;;;;;;;;;;;;;;;;;
2023/03/08 19:02:39;;;;;;;;;;;;;;;;;;;;;
2023/03/08 19:12:39;;;;;;;;;;;;;;;;;;;;;
2023/03/08 19:15:13;;;;;;;41.83;27.35;;;4.00;99.90;;;;;;5037330;28;20192;-85
2023/03/08 19:18:24;;;;;;;;;;;;;;;;;;;;;
2023/03/08 19:24:08;;;;;;;38.97;26.70;;;4.00;99.90;;;;;;5030486;28;20191;-85
2023/03/08 19:30:29;;;;;;;;;;;;;;;;;;;;;
2023/03/08 19:33:28;;;;;;;;;;;;;;;;;;;;;
2023/03/08 19:53:11;;;;;;;;;;;;;;;;;;;;;
2023/03/08 19:59:36;;;;;;;;;;;;;;;;;;;;;
2023/03/08 20:02:16;;;;;;;;;;;;;;;;;;;;;
2023/03/08 20:05:31;;;;;;;53.45;26.95;;;3.90;1.00;;;;;;5053532;28;20266;-86
2023/03/08 20:08:11;;;;;;;;;;;;;;;;;;;;;
2023/03/08 20:11:02;;;;;;;42.50;26.63;;;3.80;1.00;;;;;;5063273;28;20299;-85
2023/03/08 20:14:20;;;;;;;;;;;;;;;;;;;;;
2023/03/08 20:17:22;;;;;;;;;;;;;;;;;;;;;
2023/03/08 20:27:37;;;;;;;;;;;;;;;;;;;;;
2023/03/08 20:30:13;;;;;;;;;;;;;;;;;;;;;
2023/03/08 20:33:11;;;;;;;53.35;30.58;;;4.10;1.00;;;;;;5064519;28;20733;-86
2023/03/08 20:36:28;;;;;;;46.08;28.48;;;4.10;1.00;;;;;;5028375;28;20193;-86
2023/03/08 20:39:05;;;;;;;43.42;27.63;;;4.10;1.00;;;;;;5043920;28;20306;-85
2023/03/08 22:09:04;;;;;;;39.55;25.85;;;4.20;99.90;;;;;;3189136;26;20222;-85
2023/03/08 22:11:42;;;;;;;42.42;28.00;;;4.20;99.90;;;;;;5002418;28;20204;-85
2023/03/08 22:14:13;;;;;;;43.13;26.50;;;4.30;99.90;;;;;;4984227;28;20191;-85
2023/03/08 22:20:48;;;;;;;;;;;;;;;;;;;;;
2023/03/08 22:23:35;;;;;;;;;;;;;;;;;;;;;
2023/03/08 22:26:31;;;;;;;40.03;26.35;;;4.40;99.90;;;;;;4997374;28;20179;-84
2023/03/08 22:32:14;;;;;;;41.47;26.65;;;4.30;99.90;;;;;;4973607;28;20210;-85
2023/03/08 22:35:15;;;;;;;40.60;25.02;;;4.30;99.90;;;;;;5003046;28;20279;-84
2023/03/08 22:38:19;;;;;;;;;;;;;;;;;;;;;
2023/03/08 22:41:19;;;;;;;;;;;;;;;;;;;;;
2023/03/08 22:44:35;;;;;;;;;;;;;;;;;;;;;
2023/03/08 22:50:06;;;;;;;;;;;;;;;;;;;;;
2023/03/08 22:53:07;;;;;;;44.42;25.77;;;4.10;1.00;;;;;;4999759;28;20269;-84
2023/03/08 22:56:03;;;;;;;;;;;;;;;;;;;;;
2023/03/08 23:01:28;;;;;;;46.58;27.85;;;4.30;1.00;;;;;;4968094;28;20227;-86
2023/03/08 23:07:00;;;;;;;41.90;26.25;;;4.30;1.00;;;;;;4969204;28;20187;-85
2023/03/08 23:09:32;;;;;;;47.70;26.60;;;4.30;1.00;;;;;;5003548;28;20237;-85
2023/03/08 23:12:03;;;;;;;43.00;26.52;;;4.30;1.00;;;;;;5007735;28;20258;-85
2023/03/08 23:14:49;;;;;;;42.03;25.30;;;4.30;99.90;;;;;;4992747;28;20186;-85
2023/03/08 23:18:11;;;;;;;;;;;;;;;;;;;;;
2023/03/08 23:20:38;;;;;;;42.67;25.73;;;4.30;1.00;;;;;;5002077;28;20704;-86
2023/03/08 23:23:11;;;;;;;40.65;24.15;;;4.30;1.00;;;;;;5000888;28;20182;-86
2023/03/08 23:25:42;;;;;;;39.28;25.15;;;4.20;1.00;;;;;;5000185;28;20207;-87
2023/03/08 23:28:20;;;;;;;41.92;25.25;;;4.30;1.00;;;;;;4992394;28;20191;-85
2023/03/08 23:30:49;;;;;;;46.53;25.80;;;4.20;1.00;;;;;;5010454;28;20217;-84
2023/03/08 23:33:45;;;;;;;;;;;;;;;;;;;;;
2023/03/08 23:42:32;;;;;;;;;;;;;;;;;;;;;
2023/03/08 23:45:49;;;;;;;;;;;;;;;;;;;;;
2023/03/08 23:51:38;;;;;;;;;;;;;;;;;;;;;
2023/03/08 23:54:48;;;;;;;37.53;22.55;;;4.50;1.00;;;;;;5005313;28;20308;-86
2023/03/08 23:57:15;;;;;;;38.78;23.15;;;4.50;1.00;;;;;;4983746;28;20195;-86
2023/03/08 23:59:41;;;;;;;36.33;23.63;;;4.60;1.00;;;;;;4992650;28;20705;-86
